Time;durP1;ratioP1;P1;durP2;ratioP2;P2;SDS_P1;SDS_P2;PMS_P1;PMS_P2;Temp;Humidity;BMP_temperature;BMP_pressure;BME280_temperature;BME280_humidity;BME280_pressure;Samples;Min_cycle;Max_cycle;Signal;HPM_P1;HPM_P2
2021/08/31 00:02:12;;;;;;;12.00;10.70;;;17.90;99.90;;;;;;4991196;28;20465;-88
2021/08/31 00:04:39;;;;;;;10.53;9.50;;;17.90;99.90;;;;;;4990050;28;20547;-88
2021/08/31 00:07:05;;;;;;;11.20;10.13;;;17.90;99.90;;;;;;4972709;28;20482;-86
2021/08/31 00:09:32;;;;;;;10.90;9.80;;;17.90;99.90;;;;;;4988767;28;20467;-87
2021/08/31 00:11:59;;;;;;;10.63;9.57;;;17.80;99.90;;;;;;4988688;28;20447;-88
2021/08/31 00:14:26;;;;;;;11.20;10.17;;;17.90;99.90;;;;;;4988677;28;20720;-88
2021/08/31 00:16:53;;;;;;;13.07;11.20;;;17.80;99.90;;;;;;4998907;28;20490;-89
2021/08/31 00:19:20;;;;;;;10.70;9.70;;;17.80;99.90;;;;;;4989650;28;20453;-86
2021/08/31 00:21:47;;;;;;;11.40;10.20;;;17.90;99.90;;;;;;5005455;28;20657;-87
2021/08/31 00:24:14;;;;;;;11.30;10.20;;;17.80;99.90;;;;;;5005105;28;20479;-88
2021/08/31 00:26:41;;;;;;;10.77;9.43;;;17.80;99.90;;;;;;4986547;28;20487;-87
2021/08/31 00:29:08;;;;;;;11.30;10.27;;;17.80;99.90;;;;;;5003077;28;20440;-88
2021/08/31 00:31:35;;;;;;;11.80;10.70;;;17.80;99.90;;;;;;5003528;28;20451;-87
2021/08/31 00:34:01;;;;;;;10.40;9.50;;;17.80;99.90;;;;;;4998795;28;20477;-86
2021/08/31 00:36:28;;;;;;;12.10;10.87;;;17.70;99.90;;;;;;4981170;28;20490;-86
2021/08/31 00:38:57;;;;;;;11.53;10.47;;;17.70;99.90;;;;;;4979111;28;20463;-86
2021/08/31 00:41:25;;;;;;;12.03;10.93;;;17.70;99.90;;;;;;4984032;28;20463;-85
2021/08/31 00:43:52;;;;;;;10.27;9.40;;;17.70;99.90;;;;;;4981156;28;20498;-85
2021/08/31 00:46:22;;;;;;;13.87;11.30;;;17.60;99.90;;;;;;4982879;28;20490;-86
2021/08/31 00:48:52;;;;;;;12.33;11.10;;;17.60;99.90;;;;;;4966363;28;20479;-87
2021/08/31 00:51:21;;;;;;;11.57;10.37;;;17.60;99.90;;;;;;4983295;28;20480;-85
2021/08/31 00:53:50;;;;;;;11.93;10.83;;;17.60;99.90;;;;;;4987237;28;20477;-87
2021/08/31 00:56:20;;;;;;;12.47;11.27;;;17.50;99.90;;;;;;4993840;28;20471;-89
2021/08/31 00:58:47;;;;;;;12.00;10.90;;;17.50;99.90;;;;;;4987667;28;20440;-86
2021/08/31 01:01:14;;;;;;;13.00;11.07;;;17.50;99.90;;;;;;4987085;28;20987;-88
2021/08/31 01:03:42;;;;;;;13.77;12.30;;;17.50;99.90;;;;;;4972636;28;20475;-87
2021/08/31 01:06:09;;;;;;;13.33;11.20;;;17.40;99.90;;;;;;4976640;28;20862;-86
2021/08/31 01:08:36;;;;;;;13.87;11.77;;;17.40;99.90;;;;;;4989964;28;20467;-85
2021/08/31 01:11:04;;;;;;;13.97;12.67;;;17.30;99.90;;;;;;4973377;28;20538;-86
2021/08/31 01:13:39;;;;;;;13.50;12.10;;;17.30;99.90;;;;;;4990111;28;20471;-86
2021/08/31 01:16:06;;;;;;;13.47;11.30;;;17.30;99.90;;;;;;4984085;28;20479;-87
2021/08/31 01:18:34;;;;;;;12.27;11.17;;;17.20;99.90;;;;;;4969075;28;20490;-86
2021/08/31 01:21:00;;;;;;;13.07;11.80;;;17.30;99.90;;;;;;4971548;28;20451;-87
2021/08/31 01:23:28;;;;;;;14.87;13.10;;;17.20;99.90;;;;;;4968160;28;20452;-88
2021/08/31 01:25:56;;;;;;;12.87;11.67;;;17.20;99.90;;;;;;4989279;28;20558;-88
2021/08/31 01:28:28;;;;;;;13.80;12.10;;;17.20;99.90;;;;;;5002371;28;20460;-85
2021/08/31 01:30:58;;;;;;;15.23;13.70;;;17.20;99.90;;;;;;5002516;28;20470;-88
2021/08/31 01:33:30;;;;;;;14.10;12.70;;;17.20;99.90;;;;;;4990048;28;20456;-87
2021/08/31 01:35:58;;;;;;;14.17;12.27;;;17.20;99.90;;;;;;4999790;28;20443;-86
2021/08/31 01:38:24;;;;;;;14.63;13.13;;;17.20;99.90;;;;;;4996135;28;20589;-87
2021/08/31 01:40:51;;;;;;;13.23;11.90;;;17.20;99.90;;;;;;4975177;28;20463;-87
2021/08/31 01:43:26;;;;;;;15.10;13.60;;;17.20;99.90;;;;;;4980197;28;20453;-85
2021/08/31 01:45:53;;;;;;;15.00;13.50;;;17.10;99.90;;;;;;4980112;28;20462;-87
2021/08/31 01:48:20;;;;;;;12.77;11.60;;;17.20;99.90;;;;;;4983678;28;20475;-85
2021/08/31 01:50:47;;;;;;;15.17;13.50;;;17.20;99.90;;;;;;4979087;28;20464;-87
2021/08/31 01:53:14;;;;;;;14.43;13.13;;;17.20;99.90;;;;;;4981478;28;20466;-86
2021/08/31 01:55:41;;;;;;;14.53;13.07;;;17.20;99.90;;;;;;4964284;28;20459;-88
2021/08/31 01:58:07;;;;;;;16.60;13.37;;;17.10;99.90;;;;;;4966202;28;20502;-86
2021/08/31 02:00:34;;;;;;;16.47;14.73;;;17.10;99.90;;;;;;4962826;28;21896;-88
2021/08/31 02:03:01;;;;;;;16.00;14.37;;;17.10;99.90;;;;;;4956047;28;20506;-86
2021/08/31 02:05:28;;;;;;;15.60;13.97;;;17.10;99.90;;;;;;4957306;28;20450;-86
2021/08/31 02:07:55;;;;;;;16.10;14.40;;;17.10;99.90;;;;;;4976741;28;20475;-87
2021/08/31 02:10:22;;;;;;;15.00;13.50;;;17.10;99.90;;;;;;4968603;28;20468;-86
2021/08/31 02:12:49;;;;;;;19.23;12.73;;;17.00;99.90;;;;;;4981416;28;20431;-86
2021/08/31 02:15:15;;;;;;;19.07;15.33;;;17.10;99.90;;;;;;4992496;28;20447;-88
2021/08/31 02:17:42;;;;;;;16.37;14.67;;;17.00;99.90;;;;;;4983331;28;20499;-88
2021/08/31 02:20:10;;;;;;;16.67;14.97;;;17.10;99.90;;;;;;4982240;28;20470;-86
2021/08/31 02:22:41;;;;;;;18.03;14.70;;;17.10;99.90;;;;;;4979574;28;20826;-85
2021/08/31 02:25:09;;;;;;;15.63;14.03;;;17.10;99.90;;;;;;4983046;28;20456;-87
2021/08/31 02:27:37;;;;;;;18.80;13.60;;;17.10;99.90;;;;;;4983116;28;20642;-85
2021/08/31 02:30:06;;;;;;;16.20;14.70;;;17.10;99.90;;;;;;4987024;28;21782;-88
2021/08/31 02:32:33;;;;;;;17.60;15.20;;;17.00;99.90;;;;;;4982781;28;21224;-85
2021/08/31 02:35:00;;;;;;;16.20;14.27;;;17.00;99.90;;;;;;4986727;28;20470;-87
2021/08/31 02:37:26;;;;;;;15.30;13.33;;;16.90;99.90;;;;;;4972116;28;20479;-86
2021/08/31 02:39:53;;;;;;;17.93;15.97;;;16.80;99.90;;;;;;4984171;28;20482;-87
2021/08/31 02:42:20;;;;;;;15.83;14.23;;;16.80;99.90;;;;;;4985080;28;20461;-88
2021/08/31 02:44:46;;;;;;;16.33;14.73;;;16.70;99.90;;;;;;4985524;28;21028;-87
2021/08/31 02:47:16;;;;;;;15.50;13.77;;;16.70;99.90;;;;;;4986044;28;20487;-87
2021/08/31 02:49:43;;;;;;;16.23;14.50;;;16.60;99.90;;;;;;4986545;28;20587;-86
2021/08/31 02:52:10;;;;;;;18.47;15.67;;;16.60;99.90;;;;;;4994083;28;20465;-89
2021/08/31 02:54:37;;;;;;;18.33;15.30;;;16.60;99.90;;;;;;4989382;28;20436;-87
2021/08/31 02:57:04;;;;;;;18.33;15.40;;;16.60;99.90;;;;;;5015419;22;20480;-89
2021/08/31 02:59:31;;;;;;;16.27;14.40;;;16.60;99.90;;;;;;5010060;28;20455;-88
2021/08/31 03:02:05;;;;;;;17.50;15.17;;;16.60;99.90;;;;;;5013246;28;20460;-88
2021/08/31 03:04:38;;;;;;;18.97;14.80;;;16.60;99.90;;;;;;5021760;28;20465;-86
2021/08/31 03:07:07;;;;;;;17.13;15.37;;;16.50;99.90;;;;;;5018825;28;20510;-88
2021/08/31 03:09:34;;;;;;;17.97;15.60;;;16.50;99.90;;;;;;5009402;28;20654;-87
2021/08/31 03:12:01;;;;;;;16.53;14.77;;;16.50;99.90;;;;;;5011396;28;20483;-87
2021/08/31 03:14:28;;;;;;;17.80;15.27;;;16.50;99.90;;;;;;5009512;28;20472;-88
2021/08/31 03:16:56;;;;;;;17.67;15.87;;;16.50;99.90;;;;;;5006793;28;20547;-89
2021/08/31 03:19:24;;;;;;;18.77;15.20;;;16.50;99.90;;;;;;5004550;28;20469;-87
2021/08/31 03:21:56;;;;;;;18.10;16.27;;;16.40;99.90;;;;;;5007411;28;20542;-88
2021/08/31 03:24:23;;;;;;;15.43;13.83;;;16.40;99.90;;;;;;5006766;28;20450;-87
2021/08/31 03:26:53;;;;;;;17.93;15.20;;;16.40;99.90;;;;;;5006465;28;20470;-87
2021/08/31 03:29:20;;;;;;;17.60;15.70;;;16.40;99.90;;;;;;5004552;28;20459;-86
2021/08/31 03:31:47;;;;;;;16.50;14.80;;;16.40;99.90;;;;;;5006186;28;20497;-87
2021/08/31 03:34:14;;;;;;;16.67;14.90;;;16.40;99.90;;;;;;5004704;28;20462;-87
2021/08/31 03:36:41;;;;;;;17.63;15.73;;;16.40;99.90;;;;;;5002851;28;20496;-88
2021/08/31 03:39:08;;;;;;;17.67;15.83;;;16.40;99.90;;;;;;5002796;28;20566;-89
2021/08/31 03:41:35;;;;;;;16.93;15.23;;;16.40;99.90;;;;;;5002942;28;20473;-87
2021/08/31 03:44:04;;;;;;;19.37;16.17;;;16.30;99.90;;;;;;5005500;28;20985;-87
2021/08/31 03:46:32;;;;;;;17.77;15.40;;;16.40;99.90;;;;;;5015934;28;20456;-87
2021/08/31 03:48:59;;;;;;;16.67;15.07;;;16.30;99.90;;;;;;5005132;28;20462;-87
2021/08/31 03:51:25;;;;;;;16.90;15.20;;;16.30;99.90;;;;;;5005508;28;20552;-86
2021/08/31 03:53:52;;;;;;;18.40;15.20;;;16.40;99.90;;;;;;5003949;28;20544;-87
2021/08/31 03:56:19;;;;;;;17.50;15.77;;;16.40;99.90;;;;;;4997675;28;20524;-85
2021/08/31 03:58:46;;;;;;;19.63;16.80;;;16.40;99.90;;;;;;5004356;28;20502;-85
2021/08/31 04:01:13;;;;;;;17.27;15.47;;;16.40;99.90;;;;;;5006543;28;20464;-86
2021/08/31 04:03:41;;;;;;;17.70;15.83;;;16.40;99.90;;;;;;5003231;28;20520;-86
2021/08/31 04:06:10;;;;;;;17.87;16.07;;;16.50;99.90;;;;;;5003674;28;20484;-87
2021/08/31 04:08:37;;;;;;;17.70;15.90;;;16.40;99.90;;;;;;4999179;28;20513;-87
2021/08/31 04:11:04;;;;;;;18.03;16.10;;;16.40;99.90;;;;;;5004346;28;20450;-87
2021/08/31 04:13:34;;;;;;;19.13;17.23;;;16.40;99.90;;;;;;5002021;28;20459;-86
2021/08/31 04:16:00;;;;;;;18.80;16.87;;;16.40;99.90;;;;;;5003306;28;20870;-87
2021/08/31 04:18:27;;;;;;;18.57;16.57;;;16.30;99.90;;;;;;5001956;28;20482;-87
2021/08/31 04:20:54;;;;;;;18.97;15.73;;;16.40;99.90;;;;;;5002514;28;20466;-85
2021/08/31 04:23:21;;;;;;;19.37;17.47;;;16.30;99.90;;;;;;5021354;28;20442;-86
2021/08/31 04:25:48;;;;;;;18.60;16.70;;;16.30;99.90;;;;;;5001862;28;20465;-86
2021/08/31 04:28:15;;;;;;;17.80;16.10;;;16.30;99.90;;;;;;5007046;28;20553;-87
2021/08/31 04:30:41;;;;;;;20.43;16.83;;;16.30;99.90;;;;;;5004309;28;20530;-88
2021/08/31 04:33:08;;;;;;;18.27;16.50;;;16.50;99.90;;;;;;5002908;28;20494;-87
2021/08/31 04:35:35;;;;;;;20.83;18.63;;;16.50;99.90;;;;;;5002772;28;20979;-87
2021/08/31 04:38:02;;;;;;;19.70;16.67;;;16.60;99.90;;;;;;5000623;28;20545;-87
2021/08/31 04:40:32;;;;;;;18.97;17.00;;;16.80;99.90;;;;;;5004407;28;20462;-88
2021/08/31 04:42:59;;;;;;;21.40;18.57;;;16.90;99.90;;;;;;5000654;28;20452;-87
2021/08/31 04:45:26;;;;;;;20.33;18.23;;;17.00;99.90;;;;;;5002286;28;20466;-86
2021/08/31 04:47:53;;;;;;;21.87;17.60;;;17.00;99.90;;;;;;5001478;28;20477;-86
2021/08/31 04:50:20;;;;;;;19.33;17.43;;;16.80;99.90;;;;;;4998898;28;20545;-87
2021/08/31 04:52:47;;;;;;;20.90;18.70;;;16.80;99.90;;;;;;5000665;28;20494;-87
2021/08/31 04:55:14;;;;;;;19.90;17.90;;;16.80;99.90;;;;;;5001833;28;20814;-86
2021/08/31 04:57:41;;;;;;;21.60;18.70;;;16.80;99.90;;;;;;5000448;28;20498;-87
2021/08/31 05:00:08;;;;;;;19.83;17.73;;;16.80;99.90;;;;;;5001804;28;20447;-87
2021/08/31 05:02:36;;;;;;;20.77;18.50;;;16.60;99.90;;;;;;4999517;28;20451;-85
2021/08/31 05:05:04;;;;;;;22.07;19.77;;;16.70;99.90;;;;;;5015905;28;20493;-85
2021/08/31 05:07:31;;;;;;;22.47;18.97;;;16.60;99.90;;;;;;5011482;28;20477;-86
2021/08/31 05:09:58;;;;;;;24.03;20.43;;;16.60;99.90;;;;;;5008874;28;20472;-87
2021/08/31 05:12:27;;;;;;;33.70;23.87;;;16.60;99.90;;;;;;5001660;28;21047;-86
2021/08/31 05:14:54;;;;;;;27.90;22.80;;;16.80;99.90;;;;;;5001343;28;20460;-87
2021/08/31 05:17:21;;;;;;;27.60;21.63;;;16.70;99.90;;;;;;5002611;28;20570;-86
2021/08/31 05:19:48;;;;;;;26.53;22.37;;;16.60;99.90;;;;;;5002046;28;20456;-85
2021/08/31 05:22:15;;;;;;;33.83;24.27;;;16.60;99.90;;;;;;4999615;28;20450;-87
2021/08/31 05:24:45;;;;;;;32.20;24.83;;;16.50;99.90;;;;;;5000271;28;20438;-87
2021/08/31 05:27:12;;;;;;;31.97;25.10;;;16.50;99.90;;;;;;4996788;28;20493;-84
2021/08/31 05:29:39;;;;;;;30.33;23.80;;;16.50;99.90;;;;;;5001052;28;20455;-85
2021/08/31 05:32:07;;;;;;;30.50;23.30;;;16.40;99.90;;;;;;5012257;28;20446;-87
2021/08/31 05:34:33;;;;;;;30.20;24.80;;;16.40;99.90;;;;;;5004172;28;20549;-86
2021/08/31 05:37:00;;;;;;;22.77;19.80;;;16.50;99.90;;;;;;5001953;28;21015;-87
2021/08/31 05:39:32;;;;;;;20.97;18.77;;;16.50;99.90;;;;;;5006074;28;20491;-86
2021/08/31 05:42:05;;;;;;;22.10;19.47;;;16.50;99.90;;;;;;5024400;28;20446;-87
2021/08/31 05:44:33;;;;;;;20.67;17.83;;;16.60;99.90;;;;;;5003324;28;20437;-86
2021/08/31 05:47:02;;;;;;;21.50;19.20;;;16.60;99.90;;;;;;5008250;28;20466;-88
2021/08/31 05:49:30;;;;;;;23.80;17.93;;;16.60;99.90;;;;;;5036451;28;20510;-87
2021/08/31 05:51:58;;;;;;;20.53;18.33;;;16.70;99.90;;;;;;5023128;28;20529;-87
2021/08/31 05:54:26;;;;;;;21.33;19.03;;;16.70;99.90;;;;;;5004210;28;20965;-86
2021/08/31 05:56:54;;;;;;;22.53;18.43;;;16.80;99.90;;;;;;5002735;28;20596;-86
2021/08/31 05:59:23;;;;;;;22.37;19.03;;;16.70;99.90;;;;;;5002331;28;20556;-88
2021/08/31 06:01:57;;;;;;;21.37;18.80;;;16.80;99.90;;;;;;5003803;28;20838;-86
2021/08/31 06:04:38;;;;;;;22.17;19.37;;;16.90;99.90;;;;;;5001862;28;20462;-87
2021/08/31 06:07:09;;;;;;;22.27;19.57;;;17.10;99.90;;;;;;5003695;28;20477;-86
2021/08/31 06:09:38;;;;;;;21.37;19.13;;;17.30;99.90;;;;;;5011943;28;20454;-87
2021/08/31 06:12:07;;;;;;;22.97;20.03;;;17.40;99.90;;;;;;5018514;28;20585;-87
2021/08/31 06:14:35;;;;;;;23.37;20.07;;;17.30;99.90;;;;;;5009674;28;21055;-87
2021/08/31 06:17:02;;;;;;;22.07;19.37;;;17.10;99.90;;;;;;5009082;28;20474;-87
2021/08/31 06:19:32;;;;;;;24.97;20.40;;;17.00;99.90;;;;;;5005192;28;20490;-87
2021/08/31 06:22:00;;;;;;;22.93;20.50;;;16.80;99.90;;;;;;5004046;28;21088;-87
2021/08/31 06:24:27;;;;;;;24.30;21.73;;;16.80;99.90;;;;;;5001891;28;20448;-88
2021/08/31 06:26:54;;;;;;;25.33;20.90;;;16.60;99.90;;;;;;5000533;28;20483;-86
2021/08/31 06:29:25;;;;;;;22.73;20.27;;;16.60;99.90;;;;;;5001879;28;20488;-87
2021/08/31 06:31:54;;;;;;;24.10;21.50;;;16.60;99.90;;;;;;5003459;28;20469;-87
2021/08/31 06:34:22;;;;;;;23.70;21.03;;;16.70;99.90;;;;;;4998623;28;20485;-86
2021/08/31 06:37:01;;;;;;;29.97;24.00;;;16.90;99.90;;;;;;5003033;28;20455;-87
2021/08/31 06:39:33;;;;;;;26.97;23.20;;;17.00;99.90;;;;;;5006370;28;20508;-88
2021/08/31 06:42:01;;;;;;;28.73;24.17;;;17.40;99.90;;;;;;5005717;28;20501;-87
2021/08/31 06:44:29;;;;;;;31.13;24.80;;;17.60;99.90;;;;;;5005946;28;20520;-86
2021/08/31 06:46:56;;;;;;;28.57;25.27;;;17.60;99.90;;;;;;5000652;28;20470;-85
2021/08/31 06:49:23;;;;;;;32.83;25.53;;;17.50;99.90;;;;;;5004548;28;20461;-85
2021/08/31 06:51:50;;;;;;;32.90;26.20;;;17.60;99.90;;;;;;5004168;28;20530;-87
2021/08/31 06:54:18;;;;;;;32.50;27.80;;;17.70;99.90;;;;;;5008209;28;20486;-85
2021/08/31 06:56:45;;;;;;;37.50;28.57;;;17.90;99.90;;;;;;5009216;28;20508;-88
2021/08/31 06:59:13;;;;;;;35.70;28.90;;;17.90;99.90;;;;;;5007372;28;20563;-85
2021/08/31 07:01:43;;;;;;;40.50;30.47;;;17.80;99.90;;;;;;5007412;28;20501;-85
2021/08/31 07:04:19;;;;;;;35.00;28.57;;;17.80;99.90;;;;;;5010545;28;20458;-85
2021/08/31 07:06:49;;;;;;;37.13;29.53;;;17.80;99.90;;;;;;5008618;28;20485;-89
2021/08/31 07:09:19;;;;;;;38.27;30.50;;;17.90;99.90;;;;;;5006263;28;20469;-89
2021/08/31 07:11:47;;;;;;;35.83;29.67;;;17.90;99.90;;;;;;5007202;28;20476;-86
2021/08/31 07:14:20;;;;;;;36.53;29.67;;;18.00;99.90;;;;;;5008439;28;20510;-86
2021/08/31 07:16:47;;;;;;;40.37;30.90;;;17.90;99.90;;;;;;5022724;28;20477;-85
2021/08/31 07:19:14;;;;;;;40.97;31.40;;;17.80;99.90;;;;;;5009778;28;20485;-86
2021/08/31 07:21:47;;;;;;;44.37;33.00;;;17.60;99.90;;;;;;5014399;28;20561;-86
2021/08/31 07:24:29;;;;;;;45.20;33.70;;;17.50;99.90;;;;;;5011716;28;20432;-86
2021/08/31 07:26:57;;;;;;;46.67;34.20;;;17.50;99.90;;;;;;5016468;28;20557;-84
2021/08/31 07:29:24;;;;;;;52.73;36.57;;;17.60;99.90;;;;;;5020329;28;20457;-87
2021/08/31 07:31:55;;;;;;;47.40;34.40;;;17.60;99.90;;;;;;5025687;28;20536;-88
2021/08/31 07:34:38;;;;;;;50.00;35.87;;;17.70;99.90;;;;;;5020486;28;20499;-90
2021/08/31 07:37:19;;;;;;;53.33;36.20;;;17.60;99.90;;;;;;5040549;28;20446;-89
2021/08/31 07:39:55;;;;;;;48.20;35.30;;;17.50;99.90;;;;;;5026739;28;20477;-87
2021/08/31 07:42:28;;;;;;;48.33;34.30;;;17.40;99.90;;;;;;5015264;28;20450;-86
2021/08/31 07:44:56;;;;;;;44.73;34.87;;;17.40;99.90;;;;;;5042660;28;20478;-90
2021/08/31 07:47:24;;;;;;;48.23;34.20;;;17.40;99.90;;;;;;5071572;23;20548;-89
2021/08/31 07:50:06;;;;;;;43.13;33.30;;;17.40;99.90;;;;;;5033930;28;20445;-89
2021/08/31 07:52:50;;;;;;;44.90;31.90;;;17.30;99.90;;;;;;5037343;28;20459;-91
2021/08/31 07:55:17;;;;;;;47.17;35.00;;;17.30;99.90;;;;;;5035069;28;20441;-87
2021/08/31 07:57:44;;;;;;;53.20;37.93;;;17.80;99.90;;;;;;5014901;28;20617;-87
2021/08/31 08:00:14;;;;;;;49.67;33.87;;;18.00;99.90;;;;;;5035713;28;20569;-86
2021/08/31 08:02:43;;;;;;;59.27;38.20;;;18.10;99.90;;;;;;5019099;28;20600;-85
2021/08/31 08:05:13;;;;;;;50.23;36.23;;;18.10;99.90;;;;;;5018540;28;20517;-85
2021/08/31 08:07:41;;;;;;;54.77;36.77;;;17.80;99.90;;;;;;5014485;28;20484;-84
2021/08/31 08:10:08;;;;;;;57.27;38.10;;;18.20;99.90;;;;;;5033850;28;20465;-86
2021/08/31 08:12:46;;;;;;;51.00;36.37;;;18.20;99.90;;;;;;5012716;28;20462;-87
2021/08/31 08:15:20;;;;;;;53.60;36.73;;;18.20;99.90;;;;;;5017198;28;20453;-85
2021/08/31 08:17:51;;;;;;;56.50;37.10;;;18.10;99.90;;;;;;5014170;28;20561;-85
2021/08/31 08:20:19;;;;;;;55.40;34.97;;;18.00;99.90;;;;;;5014538;28;20442;-86
2021/08/31 08:22:55;;;;;;;50.63;34.40;;;18.10;99.90;;;;;;5011354;28;20452;-88
2021/08/31 08:25:25;;;;;;;48.60;33.80;;;18.10;99.90;;;;;;5015887;28;20470;-85
2021/08/31 08:30:53;;;;;;;51.23;35.07;;;18.10;99.90;;;;;;5058421;22;20496;-89
2021/08/31 08:33:32;;;;;;;55.20;34.33;;;18.20;99.90;;;;;;5018534;28;20500;-86
2021/08/31 08:36:19;;;;;;;52.47;35.07;;;18.50;99.90;;;;;;5017305;28;20465;-86
2021/08/31 08:39:04;;;;;;;;;;;;;;;;;;;;;
2021/08/31 08:41:45;;;;;;;56.13;37.80;;;18.90;99.90;;;;;;5013301;28;20474;-86
2021/08/31 08:44:19;;;;;;;56.07;38.40;;;18.60;99.90;;;;;;4991609;28;20571;-85
2021/08/31 08:46:50;;;;;;;61.27;39.40;;;18.60;99.90;;;;;;4997871;28;20505;-88
2021/08/31 08:49:34;;;;;;;58.23;36.70;;;18.60;99.90;;;;;;4997855;28;20438;-84
2021/08/31 08:52:23;;;;;;;52.13;35.83;;;18.50;99.90;;;;;;5009677;28;20429;-83
2021/08/31 08:54:51;;;;;;;55.43;35.73;;;18.30;99.90;;;;;;4997867;28;20481;-88
2021/08/31 08:57:37;;;;;;;55.53;37.60;;;18.30;99.90;;;;;;5000385;28;21040;-83
2021/08/31 09:00:13;;;;;;;57.30;36.63;;;18.10;99.90;;;;;;5011558;28;20481;-85
2021/08/31 09:02:58;;;;;;;59.00;39.03;;;18.00;99.90;;;;;;5001328;28;20537;-88
2021/08/31 09:05:41;;;;;;;55.47;38.27;;;18.30;99.90;;;;;;5000667;28;20453;-85
2021/08/31 09:08:15;;;;;;;65.70;41.43;;;18.20;99.90;;;;;;4999528;28;22006;-86
2021/08/31 09:10:45;;;;;;;63.83;40.63;;;18.50;99.90;;;;;;4995780;28;20545;-86
2021/08/31 09:13:18;;;;;;;67.10;44.07;;;18.40;99.90;;;;;;5013868;28;20461;-86
2021/08/31 09:15:45;;;;;;;64.57;42.67;;;18.30;99.90;;;;;;4997879;28;21028;-86
2021/08/31 09:18:16;;;;;;;59.73;42.10;;;18.10;99.90;;;;;;5020653;28;20478;-91
2021/08/31 09:20:45;;;;;;;58.00;41.10;;;17.90;99.90;;;;;;5011167;28;20435;-86
2021/08/31 09:23:37;;;;;;;62.40;40.93;;;17.90;99.90;;;;;;5007098;28;20461;-86
2021/08/31 09:26:08;;;;;;;54.93;38.60;;;18.20;99.90;;;;;;5014768;28;20462;-88
2021/08/31 09:28:39;;;;;;;56.10;41.20;;;18.10;99.90;;;;;;4997466;28;20489;-87
2021/08/31 09:31:11;;;;;;;52.43;38.13;;;18.10;99.90;;;;;;5001523;28;20427;-88
2021/08/31 09:33:41;;;;;;;52.30;38.83;;;18.00;99.90;;;;;;5012782;28;20507;-87
2021/08/31 09:36:14;;;;;;;53.00;38.90;;;18.00;99.90;;;;;;4997422;28;20474;-87
2021/08/31 09:38:44;;;;;;;52.27;38.50;;;17.90;99.90;;;;;;5013080;28;20485;-88
2021/08/31 09:41:39;;;;;;;53.27;40.20;;;18.30;99.90;;;;;;4995423;28;20455;-87
2021/08/31 09:44:11;;;;;;;57.00;39.87;;;18.20;99.90;;;;;;4994392;28;20515;-88
2021/08/31 09:47:04;;;;;;;59.40;41.53;;;18.00;99.90;;;;;;4993569;28;20474;-88
2021/08/31 09:49:39;;;;;;;57.20;42.70;;;18.00;99.90;;;;;;4984527;28;20524;-88
2021/08/31 09:52:15;;;;;;;61.90;41.00;;;18.00;99.90;;;;;;4982080;28;20516;-87
2021/08/31 09:54:45;;;;;;;54.17;40.97;;;18.30;99.90;;;;;;4994444;28;20480;-89
2021/08/31 09:57:27;;;;;;;57.13;42.40;;;18.30;99.90;;;;;;4995491;28;20561;-89
2021/08/31 09:59:55;;;;;;;57.53;40.70;;;18.00;99.90;;;;;;5010288;28;20529;-88
2021/08/31 10:02:23;;;;;;;52.07;38.53;;;17.90;99.90;;;;;;4995538;28;20454;-89
2021/08/31 10:04:53;;;;;;;57.17;41.30;;;17.90;99.90;;;;;;4996708;28;20453;-89
2021/08/31 10:07:22;;;;;;;54.13;40.47;;;17.80;99.90;;;;;;4993016;28;20470;-88
2021/08/31 10:09:51;;;;;;;63.77;41.67;;;18.00;99.90;;;;;;4996667;28;20466;-88
2021/08/31 10:12:20;;;;;;;60.43;42.57;;;18.40;99.90;;;;;;4995752;28;20550;-88
2021/08/31 10:14:53;;;;;;;63.40;45.53;;;18.30;99.90;;;;;;4992582;28;20479;-88
2021/08/31 10:17:25;;;;;;;62.77;43.93;;;18.10;99.90;;;;;;4994340;28;20467;-89
2021/08/31 10:19:53;;;;;;;60.60;43.20;;;18.30;99.90;;;;;;4995787;28;20549;-88
2021/08/31 10:22:22;;;;;;;60.10;40.90;;;18.50;99.90;;;;;;4996157;28;20545;-88
2021/08/31 10:24:53;;;;;;;57.93;40.30;;;18.80;99.90;;;;;;5013842;28;20488;-88
2021/08/31 10:27:36;;;;;;;53.90;40.33;;;18.70;99.90;;;;;;5029169;28;20533;-90
2021/08/31 10:30:15;;;;;;;58.23;38.43;;;18.20;99.90;;;;;;5033760;28;20580;-91
2021/08/31 10:32:43;;;;;;;53.40;37.70;;;18.20;99.90;;;;;;5015587;28;20454;-91
2021/08/31 10:35:30;;;;;;;52.50;38.07;;;18.10;99.90;;;;;;5007119;28;20462;-88
2021/08/31 10:38:02;;;;;;;51.30;35.60;;;18.00;99.90;;;;;;4994841;28;20462;-89
2021/08/31 10:40:41;;;;;;;50.07;36.53;;;18.10;99.90;;;;;;5000423;28;21017;-90
2021/08/31 10:43:11;;;;;;;52.00;37.07;;;18.00;99.90;;;;;;5005866;28;20461;-89
2021/08/31 10:45:51;;;;;;;46.80;34.20;;;18.00;99.90;;;;;;5008803;28;20486;-89
2021/08/31 10:48:21;;;;;;;47.27;35.47;;;18.10;99.90;;;;;;5002859;28;20474;-88
2021/08/31 10:50:58;;;;;;;46.53;35.50;;;18.10;99.90;;;;;;5020782;28;20480;-88
2021/08/31 10:53:44;;;;;;;44.67;33.60;;;18.00;99.90;;;;;;5021689;28;20450;-89
2021/08/31 10:56:21;;;;;;;48.10;36.70;;;18.00;99.90;;;;;;5020048;28;20575;-91
2021/08/31 10:58:53;;;;;;;44.10;33.23;;;18.10;99.90;;;;;;5023154;28;20540;-90
2021/08/31 11:01:27;;;;;;;37.17;31.27;;;18.30;99.90;;;;;;5013387;28;20482;-89
2021/08/31 11:03:57;;;;;;;33.70;28.83;;;18.80;99.90;;;;;;5016354;28;20461;-88
2021/08/31 11:06:37;;;;;;;35.60;27.90;;;19.50;99.90;;;;;;5019944;28;20466;-88
2021/08/31 11:09:19;;;;;;;32.37;26.07;;;20.00;99.90;;;;;;5018968;28;20454;-87
2021/08/31 11:12:08;;;;;;;24.10;21.50;;;20.60;99.90;;;;;;5028292;28;20445;-87
2021/08/31 11:15:10;;;;;;;24.57;22.00;;;21.20;99.90;;;;;;5001095;28;20458;-91
2021/08/31 11:17:53;;;;;;;20.40;18.30;;;21.40;99.30;;;;;;4953880;28;20565;-88
2021/08/31 11:31:23;;;;;;;19.73;15.10;;;21.80;98.50;;;;;;6209624;22;1282729;-87
2021/08/31 11:34:01;;;;;;;15.90;14.40;;;22.70;95.00;;;;;;6250111;23;20404;-88
2021/08/31 11:36:29;;;;;;;15.17;13.57;;;22.40;95.60;;;;;;6260669;23;20498;-88
2021/08/31 11:39:03;;;;;;;14.27;12.90;;;22.50;95.50;;;;;;6205415;23;20535;-87
2021/08/31 11:41:35;;;;;;;14.67;13.37;;;22.60;95.20;;;;;;6203832;23;20400;-87
2021/08/31 11:44:21;;;;;;;15.67;14.23;;;22.70;95.40;;;;;;6202561;23;20816;-87
2021/08/31 11:46:53;;;;;;;15.70;14.20;;;22.70;94.60;;;;;;6230050;23;20516;-89
2021/08/31 11:49:25;;;;;;;15.10;13.70;;;22.80;94.50;;;;;;6229446;23;20408;-87
2021/08/31 11:51:54;;;;;;;15.00;13.70;;;23.10;94.60;;;;;;6230918;23;20443;-87
2021/08/31 11:54:24;;;;;;;14.57;13.10;;;23.30;93.70;;;;;;6205013;23;20713;-87
2021/08/31 11:57:04;;;;;;;14.30;13.00;;;23.40;93.30;;;;;;6220455;23;20416;-88
2021/08/31 11:59:36;;;;;;;15.00;13.60;;;23.60;92.10;;;;;;6247840;23;20430;-90
2021/08/31 12:02:27;;;;;;;15.33;13.93;;;23.40;91.80;;;;;;6222838;23;20447;-88
2021/08/31 12:04:58;;;;;;;14.87;13.20;;;23.90;91.30;;;;;;6223637;23;20476;-90
2021/08/31 12:07:32;;;;;;;14.20;12.97;;;24.30;90.50;;;;;;6234215;23;20448;-89
2021/08/31 12:10:03;;;;;;;14.43;13.13;;;24.60;88.90;;;;;;6247908;22;20396;-89
2021/08/31 12:12:31;;;;;;;13.13;11.93;;;24.80;87.00;;;;;;6247075;23;20519;-91
2021/08/31 12:15:07;;;;;;;12.80;11.80;;;25.30;86.70;;;;;;6267448;22;20404;-88
2021/08/31 12:18:05;;;;;;;15.07;13.67;;;25.10;85.10;;;;;;6237150;23;20412;-86
2021/08/31 12:20:36;;;;;;;14.03;12.63;;;24.60;86.70;;;;;;6253313;23;20471;-87
2021/08/31 12:23:06;;;;;;;12.90;11.70;;;24.30;87.10;;;;;;6254997;23;20447;-89
2021/08/31 12:25:51;;;;;;;12.17;10.97;;;24.40;86.90;;;;;;6230710;23;20867;-88
2021/08/31 12:28:22;;;;;;;11.63;10.33;;;24.20;88.10;;;;;;6233838;23;20424;-89
2021/08/31 12:30:53;;;;;;;12.10;11.00;;;24.80;86.60;;;;;;6252773;23;20499;-87
2021/08/31 12:33:31;;;;;;;10.70;9.80;;;25.10;83.40;;;;;;6235850;23;20440;-91
2021/08/31 12:36:10;;;;;;;13.07;10.40;;;25.10;83.20;;;;;;6205325;22;20447;-89
2021/08/31 12:38:38;;;;;;;10.40;9.53;;;25.20;82.10;;;;;;6206193;23;20421;-87
2021/08/31 12:41:11;;;;;;;10.07;9.07;;;25.50;79.70;;;;;;6191749;23;20410;-87
2021/08/31 12:43:49;;;;;;;10.63;9.63;;;25.70;78.60;;;;;;6171444;23;20496;-87
2021/08/31 12:46:25;;;;;;;14.23;10.80;;;25.60;77.40;;;;;;6197345;23;20489;-86
2021/08/31 12:49:08;;;;;;;10.57;9.70;;;25.70;77.80;;;;;;6195702;23;20413;-87
2021/08/31 12:51:52;;;;;;;10.60;9.30;;;25.20;79.90;;;;;;6190677;23;20421;-87
2021/08/31 12:54:31;;;;;;;9.83;8.90;;;24.90;79.50;;;;;;6191752;23;20406;-87
2021/08/31 12:57:10;;;;;;;10.13;9.13;;;24.80;80.90;;;;;;6221765;23;20448;-88
2021/08/31 12:59:43;;;;;;;10.10;9.10;;;24.80;80.70;;;;;;6196317;23;20453;-87
2021/08/31 13:02:13;;;;;;;11.30;8.60;;;24.70;80.00;;;;;;6198832;23;20504;-89